createdAt,value
2022-12-19T00:02:08.782Z,32.40
2022-12-19T00:05:17.971Z,35.25
2022-12-19T00:08:17.680Z,32.38
2022-12-19T00:11:03.670Z,35.17
2022-12-19T00:14:01.493Z,31.75
2022-12-19T00:17:18.460Z,30.50
2022-12-19T00:20:18.824Z,33.17
2022-12-19T00:23:18.344Z,36.35
2022-12-19T00:29:13.842Z,34.63
2022-12-19T00:35:02.618Z,32.50
2022-12-19T00:37:49.445Z,34.17
2022-12-19T00:40:44.479Z,34.70
2022-12-19T00:43:37.701Z,31.02
2022-12-19T00:46:37.891Z,52.55
2022-12-19T00:52:26.335Z,37.03
2022-12-19T00:55:28.334Z,36.65
2022-12-19T00:58:47.341Z,32.97
2022-12-19T01:02:55.494Z,30.23
2022-12-19T01:06:05.342Z,27.30
2022-12-19T01:09:02.349Z,33.85
2022-12-19T01:14:35.278Z,46.47
2022-12-19T01:17:44.380Z,44.17
2022-12-19T01:24:28.475Z,50.30
2022-12-19T01:27:17.129Z,35.95
2022-12-19T01:30:04.569Z,36.22
2022-12-19T01:36:42.991Z,35.22
2022-12-19T01:39:28.271Z,35.35
2022-12-19T01:42:05.338Z,35.13
2022-12-19T01:44:47.107Z,36.83
2022-12-19T01:47:20.960Z,32.10
2022-12-19T01:52:56.511Z,34.30
2022-12-19T01:55:31.658Z,32.17
2022-12-19T02:05:06.547Z,37.35
2022-12-19T02:07:53.570Z,37.83
2022-12-19T02:16:40.076Z,32.85
2022-12-19T02:20:03.326Z,30.95
2022-12-19T02:23:28.566Z,42.67
2022-12-19T02:26:34.447Z,31.20
2022-12-19T02:29:26.173Z,31.15
2022-12-19T02:32:11.651Z,33.35
2022-12-19T02:35:10.407Z,35.08
2022-12-19T02:38:10.476Z,31.73
2022-12-19T02:40:55.485Z,31.63
2022-12-19T02:43:33.759Z,31.05
2022-12-19T02:46:15.093Z,29.88
2022-12-19T02:48:49.598Z,31.23
2022-12-19T02:51:29.049Z,28.67
2022-12-19T02:54:02.217Z,28.63
2022-12-19T02:56:51.086Z,29.05
2022-12-19T02:59:50.718Z,39.03
2022-12-19T03:02:40.015Z,32.75
2022-12-19T03:05:35.522Z,35.70
2022-12-19T03:08:30.904Z,32.83
2022-12-19T03:11:10.046Z,28.50
2022-12-19T03:14:06.587Z,29.77
2022-12-19T03:16:38.549Z,32.60
2022-12-19T03:19:14.741Z,27.80
2022-12-19T03:21:52.323Z,31.23
2022-12-19T03:24:25.376Z,27.05
2022-12-19T03:27:01.661Z,32.42
2022-12-19T03:29:45.794Z,29.75
2022-12-19T03:32:30.575Z,28.27
2022-12-19T03:35:11.799Z,30.23
2022-12-19T03:40:22.495Z,25.95
2022-12-19T03:43:12.670Z,27.92
2022-12-19T03:46:17.879Z,54.22
2022-12-19T03:51:57.784Z,49.28
2022-12-19T03:55:17.192Z,33.13
2022-12-19T04:01:17.583Z,30.98
2022-12-19T04:04:00.363Z,33.33
2022-12-19T04:06:36.677Z,38.45
2022-12-19T04:09:17.988Z,142.23
2022-12-19T04:12:16.177Z,104.72
2022-12-19T04:14:54.609Z,58.28
2022-12-19T04:18:08.212Z,121.35
2022-12-19T04:20:49.495Z,85.35
2022-12-19T04:23:35.619Z,56.25
2022-12-19T04:26:21.026Z,116.60
2022-12-19T04:29:05.404Z,168.07
2022-12-19T04:31:52.426Z,141.73
2022-12-19T04:34:45.515Z,130.50
2022-12-19T04:37:34.627Z,147.90
2022-12-19T04:40:16.183Z,106.13
2022-12-19T04:42:54.582Z,75.63
2022-12-19T04:45:58.980Z,108.85
2022-12-19T04:48:28.403Z,180.55
2022-12-19T04:51:09.101Z,126.70
2022-12-19T04:53:39.288Z,137.68
2022-12-19T04:56:19.877Z,87.63
2022-12-19T04:58:51.171Z,65.63
2022-12-19T05:01:24.223Z,47.05
2022-12-19T05:04:04.414Z,101.20
2022-12-19T05:06:49.702Z,72.75
2022-12-19T05:09:22.201Z,59.45
2022-12-19T05:11:55.410Z,53.80
2022-12-19T05:14:35.136Z,64.60
2022-12-19T05:17:17.353Z,85.20
2022-12-19T05:19:51.371Z,79.65
2022-12-19T05:22:21.985Z,79.00
2022-12-19T05:24:54.404Z,99.40
2022-12-19T05:27:29.079Z,82.55
2022-12-19T05:29:59.641Z,64.88
2022-12-19T05:32:44.276Z,83.60
2022-12-19T05:38:31.386Z,94.28
2022-12-19T05:41:23.275Z,92.18
2022-12-19T05:44:09.245Z,56.43
2022-12-19T05:49:25.847Z,81.38
2022-12-19T05:51:59.506Z,62.50
2022-12-19T05:54:33.410Z,49.08
2022-12-19T05:57:09.971Z,42.25
2022-12-19T05:59:42.394Z,41.13
2022-12-19T06:02:25.190Z,35.20
2022-12-19T06:05:11.922Z,52.65
2022-12-19T06:07:53.913Z,36.10
2022-12-19T06:13:07.555Z,31.77
2022-12-19T06:15:41.768Z,37.33
2022-12-19T06:18:16.534Z,52.17
2022-12-19T06:20:55.347Z,43.00
2022-12-19T06:23:33.411Z,49.33
2022-12-19T06:26:14.264Z,34.90
2022-12-19T06:28:57.032Z,41.40
2022-12-19T06:34:47.220Z,26.25
2022-12-19T06:37:25.412Z,31.88
2022-12-19T06:40:01.553Z,32.63
2022-12-19T06:42:31.554Z,33.72
2022-12-19T06:45:01.836Z,31.55
2022-12-19T06:47:38.549Z,34.10
2022-12-19T06:50:12.882Z,30.92
2022-12-19T06:52:49.279Z,37.70
2022-12-19T06:55:27.069Z,30.42
2022-12-19T06:58:01.010Z,30.73
2022-12-19T07:00:36.489Z,35.05
2022-12-19T07:03:10.717Z,32.58
2022-12-19T07:05:43.897Z,31.10
2022-12-19T07:08:23.629Z,29.92
2022-12-19T07:10:56.185Z,41.78
2022-12-19T07:13:37.008Z,33.83
2022-12-19T07:16:11.011Z,35.83
2022-12-19T07:22:19.389Z,32.35
2022-12-19T07:25:01.122Z,35.08
2022-12-19T07:28:00.297Z,29.30
2022-12-19T07:33:22.017Z,30.23
2022-12-19T07:36:00.664Z,36.53
2022-12-19T07:38:34.332Z,33.97
2022-12-19T07:41:07.323Z,28.85
2022-12-19T07:51:33.556Z,27.60
2022-12-19T08:33:00.541Z,37.45
2022-12-19T08:39:15.477Z,37.75
2022-12-19T08:47:58.654Z,37.25
2022-12-19T08:55:58.948Z,34.42
2022-12-19T08:58:29.371Z,31.30
2022-12-19T09:01:14.434Z,36.42
2022-12-19T09:03:57.976Z,34.78
2022-12-19T09:06:41.209Z,31.92
2022-12-19T09:09:12.112Z,30.35
2022-12-19T09:11:41.110Z,31.02
2022-12-19T09:14:20.471Z,37.92
2022-12-19T09:16:52.498Z,35.90
2022-12-19T09:19:21.972Z,34.85
2022-12-19T09:21:54.849Z,33.58
2022-12-19T09:24:27.178Z,31.30
2022-12-19T09:30:40.374Z,41.13
2022-12-19T09:36:15.866Z,32.08
2022-12-19T09:42:44.460Z,34.30
2022-12-19T09:46:07.478Z,33.58
2022-12-19T09:51:56.940Z,33.28
2022-12-19T09:55:30.898Z,34.10
2022-12-19T10:07:16.201Z,43.05
2022-12-19T10:10:03.970Z,40.65
2022-12-19T10:12:38.374Z,37.00
2022-12-19T10:14:59.798Z,43.38
2022-12-19T10:18:10.372Z,44.75
2022-12-19T10:20:46.077Z,38.58
2022-12-19T10:23:23.557Z,39.63
2022-12-19T10:26:11.453Z,42.25
2022-12-19T10:29:09.427Z,40.13
2022-12-19T10:34:47.139Z,48.97
2022-12-19T10:37:35.258Z,46.20
2022-12-19T10:41:07.690Z,46.13
2022-12-19T10:44:37.622Z,41.53
2022-12-19T10:56:37.403Z,57.08
2022-12-19T10:59:22.325Z,61.30
2022-12-19T11:02:00.758Z,57.45
2022-12-19T11:04:36.984Z,58.08
2022-12-19T11:24:21.305Z,67.20
2022-12-19T11:29:18.091Z,63.13
2022-12-19T11:54:08.612Z,68.60
2022-12-19T12:00:05.805Z,61.97
2022-12-19T12:02:57.260Z,68.18
2022-12-19T12:19:49.964Z,75.13
2022-12-19T12:24:07.053Z,75.55
2022-12-19T12:47:16.233Z,63.90
2022-12-19T14:07:41.605Z,52.42
2022-12-19T14:11:34.802Z,50.13
2022-12-19T14:13:49.660Z,57.55
2022-12-19T14:16:18.625Z,53.88
2022-12-19T14:18:50.620Z,57.08
2022-12-19T14:24:20.011Z,55.28
2022-12-19T14:28:26.720Z,55.47
2022-12-19T14:30:29.874Z,56.47
2022-12-19T14:33:45.423Z,52.83
2022-12-19T14:36:07.016Z,61.13
2022-12-19T14:39:26.417Z,59.05
2022-12-19T14:41:55.988Z,58.05
2022-12-19T14:54:10.125Z,56.80
2022-12-19T14:54:13.167Z,59.85
2022-12-19T14:54:23.894Z,55.53
2022-12-19T14:54:25.032Z,59.45
2022-12-19T14:56:54.223Z,58.83
2022-12-19T14:59:05.667Z,58.35
2022-12-19T15:01:37.447Z,57.50
2022-12-19T15:04:48.923Z,61.25
2022-12-19T15:07:11.835Z,58.38
2022-12-19T15:11:06.149Z,56.53
2022-12-19T15:14:50.791Z,56.47
2022-12-19T15:16:23.583Z,51.85
2022-12-19T15:18:53.369Z,55.10
2022-12-19T15:21:20.902Z,55.72
2022-12-19T15:23:48.069Z,57.42
2022-12-19T15:26:27.742Z,54.75
2022-12-19T15:28:56.974Z,55.60
2022-12-19T15:31:42.518Z,52.85
2022-12-19T15:34:52.028Z,57.13
2022-12-19T15:37:19.893Z,52.80
2022-12-19T15:39:47.430Z,53.53
2022-12-19T15:42:26.305Z,56.03
2022-12-19T15:44:55.928Z,54.10
2022-12-19T15:47:36.336Z,59.72
2022-12-19T15:50:32.589Z,47.70
2022-12-19T15:53:02.589Z,70.68
2022-12-19T15:55:31.044Z,80.38
2022-12-19T15:58:05.653Z,70.35
2022-12-19T16:00:36.371Z,80.88
2022-12-19T16:15:29.201Z,66.22
2022-12-19T16:19:26.776Z,80.38
2022-12-19T16:25:34.132Z,74.43
2022-12-19T16:40:02.339Z,62.92
2022-12-19T16:42:39.677Z,74.63
2022-12-19T16:45:18.629Z,69.40
2022-12-19T16:47:51.707Z,75.78
2022-12-19T16:50:34.148Z,74.78
2022-12-19T16:53:04.113Z,83.93
2022-12-19T17:01:51.258Z,82.88
2022-12-19T17:04:53.938Z,80.78
2022-12-19T17:08:30.450Z,69.25
2022-12-19T17:11:06.838Z,69.53
2022-12-19T17:19:46.412Z,68.78
2022-12-19T17:22:18.094Z,64.72
2022-12-19T17:34:39.716Z,69.68
2022-12-19T17:37:20.599Z,72.53
2022-12-19T18:03:29.448Z,77.38
2022-12-19T18:08:39.184Z,54.17
2022-12-19T18:11:35.387Z,82.50
2022-12-19T18:14:05.964Z,86.95
2022-12-19T18:19:25.532Z,73.45
2022-12-19T18:21:52.722Z,73.32
2022-12-19T18:24:19.908Z,75.20
2022-12-19T18:26:47.063Z,75.03
2022-12-19T18:29:19.916Z,71.05
2022-12-19T18:31:50.925Z,68.30
2022-12-19T18:34:24.288Z,75.80
2022-12-19T18:36:59.797Z,77.35
2022-12-19T18:42:23.805Z,87.57
2022-12-19T18:44:54.271Z,87.93
2022-12-19T18:50:14.499Z,81.03
2022-12-19T18:52:44.488Z,76.28
2022-12-19T18:55:23.623Z,78.32
2022-12-19T18:57:50.924Z,77.95
2022-12-19T19:00:22.629Z,74.13
2022-12-19T19:03:14.758Z,70.40
2022-12-19T19:08:26.361Z,74.50
2022-12-19T19:11:04.119Z,72.15
2022-12-19T19:13:32.583Z,78.40
2022-12-19T19:16:02.373Z,77.10
2022-12-19T19:18:35.565Z,76.25
2022-12-19T19:21:09.751Z,72.65
2022-12-19T19:23:47.123Z,78.18
2022-12-19T19:26:18.888Z,75.00
2022-12-19T19:28:52.015Z,70.55
2022-12-19T19:31:23.459Z,76.50
2022-12-19T19:33:55.515Z,72.07
2022-12-19T19:38:55.283Z,71.20
2022-12-19T19:41:30.209Z,80.82
2022-12-19T19:44:00.518Z,82.18
2022-12-19T19:46:28.518Z,83.25
2022-12-19T19:48:57.380Z,99.63
2022-12-19T19:51:31.449Z,84.22
2022-12-19T19:54:06.247Z,71.75
2022-12-19T19:56:34.312Z,65.20
2022-12-19T19:59:01.354Z,66.03
2022-12-19T20:04:12.630Z,68.63
2022-12-19T20:06:40.556Z,69.95
2022-12-19T20:09:09.101Z,64.93
2022-12-19T20:14:21.740Z,65.65
2022-12-19T20:16:53.060Z,62.90
2022-12-19T20:19:25.224Z,64.53
2022-12-19T20:24:57.987Z,62.30
2022-12-19T20:27:33.168Z,61.60
2022-12-19T20:30:26.499Z,66.47
2022-12-19T20:33:20.262Z,65.65
2022-12-19T20:35:55.312Z,69.03
2022-12-19T20:38:22.244Z,76.95
2022-12-19T20:40:51.619Z,72.65
2022-12-19T20:43:18.833Z,68.47
2022-12-19T20:48:34.054Z,72.30
2022-12-19T20:51:07.999Z,64.93
2022-12-19T20:53:36.475Z,66.43
2022-12-19T20:56:45.227Z,70.53
2022-12-19T20:59:18.920Z,67.13
2022-12-19T21:01:59.707Z,72.50
2022-12-19T21:04:33.153Z,64.05
2022-12-19T21:07:01.242Z,68.78
2022-12-19T21:09:32.756Z,63.95
2022-12-19T21:14:40.545Z,69.80
2022-12-19T21:17:07.667Z,70.43
2022-12-19T21:19:35.016Z,62.88
2022-12-19T21:22:12.113Z,66.38
2022-12-19T21:24:40.559Z,68.85
2022-12-19T21:27:11.297Z,64.25
2022-12-19T21:29:38.474Z,69.38
2022-12-19T21:32:05.716Z,69.38
2022-12-19T21:34:32.579Z,74.32
2022-12-19T21:36:59.473Z,66.07
2022-12-19T21:39:27.497Z,68.63
2022-12-19T21:41:55.493Z,68.53
2022-12-19T21:44:22.402Z,68.32
2022-12-19T21:46:50.050Z,75.70
2022-12-19T21:52:32.354Z,69.07
2022-12-19T21:55:00.191Z,68.13
2022-12-19T21:57:29.467Z,71.13
2022-12-19T21:59:58.983Z,73.70
2022-12-19T22:02:26.809Z,73.07
2022-12-19T22:04:58.639Z,77.35
2022-12-19T22:10:14.746Z,75.95
2022-12-19T22:15:40.998Z,75.20
2022-12-19T22:18:11.328Z,82.00
2022-12-19T22:26:31.897Z,75.57
2022-12-19T22:28:59.981Z,71.57
2022-12-19T22:31:30.337Z,72.68
2022-12-19T22:34:18.957Z,69.50
2022-12-19T22:36:49.638Z,92.78
2022-12-19T22:39:21.015Z,83.40
2022-12-19T22:41:55.168Z,67.88
2022-12-19T22:44:24.282Z,68.78
2022-12-19T22:46:52.031Z,79.38
2022-12-19T22:49:19.030Z,72.95
2022-12-19T22:51:46.478Z,72.45
2022-12-19T22:56:59.660Z,67.97
2022-12-19T22:59:26.654Z,74.65
2022-12-19T23:01:54.269Z,73.05
2022-12-19T23:04:22.566Z,75.45
2022-12-19T23:06:56.586Z,75.25
2022-12-19T23:09:24.841Z,78.18
2022-12-19T23:11:51.932Z,76.68
2022-12-19T23:14:20.653Z,69.30
2022-12-19T23:16:48.930Z,80.18
2022-12-19T23:19:17.755Z,71.10
2022-12-19T23:21:46.164Z,69.72
2022-12-19T23:24:14.634Z,66.10
2022-12-19T23:26:42.020Z,70.38
2022-12-19T23:29:14.305Z,68.63
2022-12-19T23:31:44.930Z,62.80
2022-12-19T23:34:13.067Z,64.18
2022-12-19T23:39:31.714Z,72.20
2022-12-19T23:41:59.020Z,67.90
2022-12-19T23:44:26.569Z,67.25
2022-12-19T23:47:02.280Z,69.32
2022-12-19T23:49:30.358Z,72.60
2022-12-19T23:52:00.317Z,67.18
2022-12-19T23:54:30.371Z,63.65
2022-12-19T23:56:58.626Z,69.60
2022-12-19T23:59:26.229Z,67.93
